John Quigg — WDB9828 — position and weather

sailwx.info

Track history (hours):
 
Tides and Currents Weather Stations Pressure Air Temp Water Temp Dewpoint Dewpoint Depression Visibility Wind Speed Wind Dir Waves Ship Positions

John Quigg

Owner: Harley Marine Services, Inc, Seattle, WA. More information available from US FCC via Universal Licensing System and Coast Guard Vessel Documentation Center.

Last reported at 2017-Jun-24 05:00 UTC. Time now 2017-Jun-24 05:23 UTC.
Position N 33°44' W 118°16'.

Length 27 m.

MMSI: 365934954.

Date/timePositionNaut miles runAvg speedWind from/ knotsBaromVisibWave heightAir tempDewpointWater temp
2017-Jun-24 05:00N 33°44' W 118°16'0 0.0
2017-Jun-24 04:30N 33°44' W 118°16'0 0.0
2017-Jun-24 04:00N 33°44' W 118°16'0 0.0
2017-Jun-24 03:11N 33°44' W 118°16'0 0.0
2017-Jun-24 02:49N 33°44' W 118°16'0 0.0
2017-Jun-24 02:13N 33°44' W 118°16'0 0.0
2017-Jun-24 02:00N 33°44' W 118°16'0 0.0
2017-Jun-24 00:51N 33°44' W 118°16'0 0.0
2017-Jun-23 23:30N 33°44' W 118°16'0 0.0
2017-Jun-23 22:53N 33°44' W 118°16'0 0.0
2017-Jun-23 22:28N 33°44' W 118°16'0 0.0
2017-Jun-23 22:00N 33°44' W 118°16'0 0.0
2017-Jun-23 21:20N 33°44' W 118°16'0 0.0
2017-Jun-23 20:53N 33°44' W 118°16'0 0.0
2017-Jun-23 19:28N 33°44' W 118°16'0 0.0
2017-Jun-23 19:00N 33°44' W 118°16'2 2.5
2017-Jun-23 18:07N 33°45' W 118°13'1 1.2
2017-Jun-23 17:35N 33°45' W 118°13'2 6.4
2017-Jun-23 17:15N 33°43' W 118°14'1 4.9
2017-Jun-23 17:00N 33°43' W 118°16'0 0.7
2017-Jun-23 16:28N 33°44' W 118°16'2 1.9
2017-Jun-23 15:26N 33°44' W 118°13'1 0.4
2017-Jun-23 13:39N 33°44' W 118°12'1 1.1
2017-Jun-23 13:04N 33°44' W 118°12'0 5.5
2017-Jun-23 13:00N 33°44' W 118°12'3 5.7
2017-Jun-23 12:30N 33°43' W 118°16'0 0.1
2017-Jun-23 10:31N 33°43' W 118°16'0 4.9
2017-Jun-23 10:30N 33°43' W 118°16'1 1.0
2017-Jun-23 09:50N 33°44' W 118°16'0 0.0
2017-Jun-23 09:23N 33°44' W 118°16'0 0.0
2017-Jun-23 08:54N 33°44' W 118°16'0 0.0
2017-Jun-23 08:29N 33°44' W 118°16'0 0.0
2017-Jun-23 07:57N 33°44' W 118°16'0 0.0
2017-Jun-23 07:17N 33°44' W 118°16'0 0.0
2017-Jun-23 06:46N 33°44' W 118°16'0 0.0
2017-Jun-23 06:26N 33°44' W 118°16'0 0.0
2017-Jun-23 05:14N 33°44' W 118°16'0 0.0
2017-Jun-23 04:59N 33°44' W 118°16'0 0.0
2017-Jun-23 04:21N 33°44' W 118°16'0 0.0
2017-Jun-23 03:18N 33°44' W 118°16'0 0.0
2017-Jun-23 03:00N 33°44' W 118°16'0 0.0
2017-Jun-23 02:27N 33°44' W 118°16'1 2.2
2017-Jun-23 01:54N 33°45' W 118°16'0 1.2
2017-Jun-23 01:30N 33°45' W 118°17'2 3.9
2017-Jun-23 00:59N 33°43' W 118°16'1 1.4
2017-Jun-23 00:30N 33°44' W 118°16'0 0.0
2017-Jun-23 00:00N 33°44' W 118°16'0 0.0
2017-Jun-22 23:30N 33°44' W 118°16'0 0.0
2017-Jun-22 22:59N 33°44' W 118°16'0 0.0
2017-Jun-22 22:18N 33°44' W 118°16'0 0.0
2017-Jun-22 22:00N 33°44' W 118°16'0 0.0
2017-Jun-22 21:30N 33°44' W 118°16'0 0.0
2017-Jun-22 21:00N 33°44' W 118°16'0 0.0
2017-Jun-22 20:23N 33°44' W 118°16'0 0.0
2017-Jun-22 20:00N 33°44' W 118°16'0 0.0
2017-Jun-22 19:27N 33°44' W 118°16'0 0.0
2017-Jun-22 18:57N 33°44' W 118°16'0 0.0
2017-Jun-22 18:26N 33°44' W 118°16'0 0.0
2017-Jun-22 17:55N 33°44' W 118°16'0 0.0
2017-Jun-22 17:30N 33°44' W 118°16'0 0.0
2017-Jun-22 17:00N 33°44' W 118°16'0 0.0
2017-Jun-22 16:30N 33°44' W 118°16'0 0.0
2017-Jun-22 16:00N 33°44' W 118°16'0 0.0
2017-Jun-22 15:30N 33°44' W 118°16'1 1.9
2017-Jun-22 14:46N 33°45' W 118°16'2 2.5
2017-Jun-22 14:01N 33°43' W 118°16'1 2.1
2017-Jun-22 13:29N 33°44' W 118°15'1 1.4
2017-Jun-22 12:39N 33°43' W 118°15'1 1.9
2017-Jun-22 12:21N 33°43' W 118°16'1 1.6
2017-Jun-22 12:00N 33°44' W 118°15'0 0.1
2017-Jun-22 11:29N 33°44' W 118°15'0 0.0
2017-Jun-22 11:00N 33°44' W 118°15'0 0.7
2017-Jun-22 10:30N 33°44' W 118°16'0 0.0
2017-Jun-22 10:00N 33°44' W 118°16'0 0.0
2017-Jun-22 09:30N 33°44' W 118°16'0 0.0
2017-Jun-22 09:00N 33°44' W 118°16'0 0.0
2017-Jun-22 08:30N 33°44' W 118°16'0 0.0
2017-Jun-22 08:00N 33°44' W 118°16'0 0.0
2017-Jun-22 07:30N 33°44' W 118°16'0 0.0
2017-Jun-22 07:00N 33°44' W 118°16'0 0.0
2017-Jun-22 06:30N 33°44' W 118°16'0 0.0
2017-Jun-22 06:00N 33°44' W 118°16'0 0.0
2017-Jun-22 05:30N 33°44' W 118°16'0 0.0
2017-Jun-22 05:00N 33°44' W 118°16'0 0.0
2017-Jun-22 04:28N 33°44' W 118°16'0 0.0
2017-Jun-22 03:35N 33°44' W 118°16'0 0.0
2017-Jun-22 03:26N 33°44' W 118°16'0 0.0
2017-Jun-22 03:00N 33°44' W 118°16'0 0.0
2017-Jun-22 02:26N 33°44' W 118°16'0 0.0
2017-Jun-22 02:00N 33°44' W 118°16'0 0.0
2017-Jun-22 01:30N 33°44' W 118°16'0 0.0
2017-Jun-22 01:00N 33°44' W 118°16'1 2.4
2017-Jun-22 00:30N 33°43' W 118°15'3 6.2
2017-Jun-22 00:00N 33°44' W 118°12'2 3.2
2017-Jun-21 23:30N 33°44' W 118°13'2 3.9
2017-Jun-21 23:00N 33°44' W 118°16'0 0.0
2017-Jun-21 22:30N 33°44' W 118°16'0 0.0
2017-Jun-21 22:00N 33°44' W 118°16'0 0.0
2017-Jun-21 21:30N 33°44' W 118°16'0 0.0
2017-Jun-21 20:59N 33°44' W 118°16'1 1.5
2017-Jun-21 20:30N 33°43' W 118°16'3 5.6
2017-Jun-21 19:58N 33°46' W 118°15'0 0.0
2017-Jun-21 19:28N 33°46' W 118°15'0 0.0
2017-Jun-21 18:57N 33°46' W 118°15'2 3.0
2017-Jun-21 18:26N 33°46' W 118°13'0 0.6
2017-Jun-21 17:58N 33°46' W 118°13'2 0.8
2017-Jun-21 15:10N 33°44' W 118°13'1 0.4
2017-Jun-21 12:47N 33°45' W 118°13'1 5.5
2017-Jun-21 12:30N 33°44' W 118°12'3 1.9
2017-Jun-21 11:07N 33°46' W 118°13'0 0.0
2017-Jun-21 10:44N 33°46' W 118°13'1 4.7
2017-Jun-21 10:30N 33°45' W 118°13'3 5.1
2017-Jun-21 10:00N 33°44' W 118°16'0 0.1
2017-Jun-21 09:25N 33°44' W 118°16'0 0.0
2017-Jun-21 09:00N 33°44' W 118°16'0 0.0
2017-Jun-21 08:30N 33°44' W 118°16'0 0.0
2017-Jun-21 08:00N 33°44' W 118°16'0 0.0
2017-Jun-21 07:30N 33°44' W 118°16'0 0.0
2017-Jun-21 07:00N 33°44' W 118°16'0 0.0
2017-Jun-21 06:30N 33°44' W 118°16'0 0.0
2017-Jun-21 05:59N 33°44' W 118°16'0 0.0
2017-Jun-21 05:30N 33°44' W 118°16'0 0.0
2017-Jun-21 05:00N 33°44' W 118°16'0 0.0
2017-Jun-21 04:30N 33°44' W 118°16'0 0.0
2017-Jun-21 04:00N 33°44' W 118°16'0 0.0
2017-Jun-21 03:30N 33°44' W 118°16'0 0.0
2017-Jun-21 02:59N 33°44' W 118°16'0 0.0
2017-Jun-21 02:30N 33°44' W 118°16'0 0.0
2017-Jun-21 01:48N 33°44' W 118°16'0 0.0
2017-Jun-21 01:30N 33°44' W 118°16'0 0.0
2017-Jun-21 00:54N 33°44' W 118°16'0 0.0
2017-Jun-21 00:28N 33°44' W 118°16'0 0.0
2017-Jun-20 23:15N 33°44' W 118°16'0 0.0
2017-Jun-20 22:51N 33°44' W 118°16'0 0.0
2017-Jun-20 22:18N 33°44' W 118°16'0 0.0
2017-Jun-20 22:00N 33°44' W 118°16'0 0.0
2017-Jun-20 21:30N 33°44' W 118°16'0 0.0
2017-Jun-20 21:00N 33°44' W 118°16'0 0.0
2017-Jun-20 20:30N 33°44' W 118°16'0 0.0
2017-Jun-20 19:57N 33°44' W 118°16'0 0.0
2017-Jun-20 19:30N 33°44' W 118°16'0 0.0
2017-Jun-20 19:00N 33°44' W 118°16'0 0.0
2017-Jun-20 18:30N 33°44' W 118°16'0 0.0
2017-Jun-20 18:00N 33°44' W 118°16'0 0.0
2017-Jun-20 17:30N 33°44' W 118°16'0 0.0
2017-Jun-20 16:34N 33°44' W 118°16'0 0.0
2017-Jun-20 16:27N 33°44' W 118°16'0 0.0
2017-Jun-20 14:35N 33°44' W 118°16'0 0.0
2017-Jun-20 14:25N 33°44' W 118°16'0 0.0
2017-Jun-20 13:30N 33°44' W 118°16'0 0.0
2017-Jun-20 10:13N 33°44' W 118°16'0 0.0
2017-Jun-20 09:23N 33°44' W 118°16'0 0.0
2017-Jun-20 08:39N 33°44' W 118°16'0 0.0
2017-Jun-20 08:27N 33°44' W 118°16'0 0.0
2017-Jun-20 07:53N 33°44' W 118°16'0 0.0
2017-Jun-20 07:23N 33°44' W 118°16'0 0.0
2017-Jun-20 06:52N 33°44' W 118°16'0 0.0
2017-Jun-20 06:24N 33°44' W 118°16'0 0.0
2017-Jun-20 05:37N 33°44' W 118°16'0 0.0
2017-Jun-20 05:11N 33°44' W 118°16'0 0.0
2017-Jun-20 04:37N 33°44' W 118°16'0 0.0
2017-Jun-20 04:29N 33°44' W 118°16'0 0.0
2017-Jun-20 04:00N 33°44' W 118°16'0 0.0
2017-Jun-20 03:30N 33°44' W 118°16'0 0.0
2017-Jun-20 02:59N 33°44' W 118°16'0 0.0
2017-Jun-20 02:31N 33°44' W 118°16'0 0.0
2017-Jun-20 02:00N 33°44' W 118°16'0 0.0
2017-Jun-20 01:30N 33°44' W 118°16'0 0.0
2017-Jun-20 01:00N 33°44' W 118°16'1 2.1
2017-Jun-20 00:30N 33°43' W 118°15'3 6.2
2017-Jun-20 00:00N 33°40' W 118°14'510.1
2017-Jun-19 23:31N 33°44' W 118°17'2 2.7
2017-Jun-19 22:57N 33°46' W 118°16'2 3.8
2017-Jun-19 22:30N 33°44' W 118°17'2 3.8
2017-Jun-19 22:00N 33°43' W 118°15'1 2.4
2017-Jun-19 21:26N 33°44' W 118°16'0 0.0
2017-Jun-19 20:52N 33°44' W 118°16'0 0.0
2017-Jun-19 20:27N 33°44' W 118°16'0 0.0
2017-Jun-19 19:54N 33°44' W 118°16'0 0.0
2017-Jun-19 19:30N 33°44' W 118°16'0 0.0
2017-Jun-19 18:54N 33°44' W 118°16'0 0.0
2017-Jun-19 17:49N 33°44' W 118°16'0 0.0
2017-Jun-19 17:24N 33°44' W 118°16'0 0.0
2017-Jun-19 17:00N 33°44' W 118°16'0 0.0
2017-Jun-19 16:27N 33°44' W 118°16'0 0.0
2017-Jun-19 15:57N 33°44' W 118°16'0 0.0
2017-Jun-19 15:27N 33°44' W 118°16'0 0.0
2017-Jun-19 14:44N 33°44' W 118°16'2 2.7
2017-Jun-19 13:54N 33°46' W 118°15'0 0.7
2017-Jun-19 13:30N 33°46' W 118°15'2 3.5
2017-Jun-19 12:58N 33°44' W 118°17'2 4.1
2017-Jun-19 12:30N 33°43' W 118°15'1 1.1
2017-Jun-19 12:00N 33°43' W 118°16'1 1.3
2017-Jun-19 11:30N 33°44' W 118°16'0 0.1
2017-Jun-19 11:00N 33°44' W 118°16'0 0.0
2017-Jun-19 10:26N 33°44' W 118°16'0 0.0
2017-Jun-19 09:57N 33°44' W 118°16'0 0.0
2017-Jun-19 09:30N 33°44' W 118°16'0 0.0
2017-Jun-19 08:57N 33°44' W 118°16'0 0.0
2017-Jun-19 08:29N 33°44' W 118°16'0 0.0
2017-Jun-19 08:00N 33°44' W 118°16'0 0.0
2017-Jun-19 07:30N 33°44' W 118°16'0 0.0
2017-Jun-19 06:58N 33°44' W 118°16'0 0.0
2017-Jun-19 06:26N 33°44' W 118°16'0 0.0
2017-Jun-19 05:49N 33°44' W 118°16'0 0.0
2017-Jun-19 05:30N 33°44' W 118°16'0 0.0
2017-Jun-19 05:00N 33°44' W 118°16'0 0.0
2017-Jun-19 04:30N 33°44' W 118°16'0 0.0
2017-Jun-19 03:57N 33°44' W 118°16'0 0.0
2017-Jun-19 03:30N 33°44' W 118°16'0 0.0
2017-Jun-19 02:57N 33°44' W 118°16'0 0.0
2017-Jun-19 02:27N 33°44' W 118°16'0 0.0
2017-Jun-19 01:53N 33°44' W 118°16'0 0.0
2017-Jun-19 01:22N 33°44' W 118°16'0 0.0
2017-Jun-19 00:57N 33°44' W 118°16'0 0.0
2017-Jun-19 00:30N 33°44' W 118°16'0 0.0
2017-Jun-19 00:00N 33°44' W 118°16'0 0.0
2017-Jun-18 23:30N 33°44' W 118°16'0 0.0
2017-Jun-18 23:00N 33°44' W 118°16'1 2.9
2017-Jun-18 22:30N 33°45' W 118°16'1 1.7
2017-Jun-18 22:00N 33°44' W 118°17'1 2.7
2017-Jun-18 21:30N 33°43' W 118°16'1 1.2
2017-Jun-18 21:00N 33°43' W 118°15'1 2.0
2017-Jun-18 20:29N 33°44' W 118°16'0 0.0
2017-Jun-18 19:58N 33°44' W 118°16'0 0.0
2017-Jun-18 19:30N 33°44' W 118°16'0 0.0
2017-Jun-18 19:00N 33°44' W 118°16'0 0.0
2017-Jun-18 18:30N 33°44' W 118°16'0 0.0
2017-Jun-18 16:13N 33°44' W 118°16'0 0.0
2017-Jun-18 16:00N 33°44' W 118°16'0 0.0
2017-Jun-18 15:29N 33°44' W 118°16'0 0.0
2017-Jun-18 14:32N 33°44' W 118°16'0 0.0
2017-Jun-18 13:58N 33°44' W 118°16'0 0.0
2017-Jun-18 13:21N 33°44' W 118°16'0 0.7
2017-Jun-18 13:00N 33°44' W 118°16'0 0.8
2017-Jun-18 12:30N 33°44' W 118°15'0 0.1
2017-Jun-18 12:00N 33°44' W 118°15'0 0.4
2017-Jun-18 11:30N 33°44' W 118°16'0 0.6
2017-Jun-18 11:00N 33°44' W 118°15'0 0.6
2017-Jun-18 10:29N 33°44' W 118°16'1 2.4
2017-Jun-18 10:01N 33°43' W 118°15'1 2.3
2017-Jun-18 09:28N 33°44' W 118°16'0 0.0
2017-Jun-18 09:00N 33°44' W 118°16'0 0.0
2017-Jun-18 08:29N 33°44' W 118°16'0 0.0
2017-Jun-18 07:54N 33°44' W 118°16'0 0.0
2017-Jun-18 07:30N 33°44' W 118°16'0 0.0
2017-Jun-18 07:00N 33°44' W 118°16'0 0.0
2017-Jun-18 06:30N 33°44' W 118°16'0 0.0
2017-Jun-18 06:00N 33°44' W 118°16'0 0.0
2017-Jun-18 05:30N 33°44' W 118°16'0 0.0
2017-Jun-18 04:56N 33°44' W 118°16'1 1.6
2017-Jun-18 04:26N 33°43' W 118°16'3 7.7
2017-Jun-18 04:00N 33°46' W 118°13'1 2.2
2017-Jun-18 03:30N 33°45' W 118°13'2 4.5
2017-Jun-18 03:00N 33°44' W 118°16'0 0.0
2017-Jun-18 02:30N 33°44' W 118°16'0 0.0
2017-Jun-18 02:00N 33°44' W 118°16'0 0.0
2017-Jun-18 01:30N 33°44' W 118°16'0 0.0
2017-Jun-18 00:58N 33°44' W 118°16'0 0.0
2017-Jun-18 00:30N 33°44' W 118°16'0 0.0
2017-Jun-18 00:00N 33°44' W 118°16'0 0.0
2017-Jun-17 23:30N 33°44' W 118°16'0 0.0
2017-Jun-17 23:00N 33°44' W 118°16'0 0.0
2017-Jun-17 22:30N 33°44' W 118°16'0 0.0
2017-Jun-17 22:00N 33°44' W 118°16'0 0.0
2017-Jun-17 21:30N 33°44' W 118°16'0 0.0
2017-Jun-17 21:00N 33°44' W 118°16'0 0.0
2017-Jun-17 20:30N 33°44' W 118°16'0 0.0
2017-Jun-17 20:00N 33°44' W 118°16'0 0.0
2017-Jun-17 19:30N 33°44' W 118°16'0 0.0
2017-Jun-17 19:00N 33°44' W 118°16'0 0.0
2017-Jun-17 18:30N 33°44' W 118°16'0 0.0
2017-Jun-17 18:00N 33°44' W 118°16'0 0.0
2017-Jun-17 17:29N 33°44' W 118°16'0 0.0
2017-Jun-17 16:59N 33°44' W 118°16'0 0.0
2017-Jun-17 16:30N 33°44' W 118°16'0 0.0
2017-Jun-17 16:00N 33°44' W 118°16'0 0.0
2017-Jun-17 15:29N 33°44' W 118°16'0 0.0
2017-Jun-17 15:00N 33°44' W 118°16'0 0.0
2017-Jun-17 14:00N 33°44' W 118°16'0 0.0
2017-Jun-17 13:30N 33°44' W 118°16'0 0.2
2017-Jun-17 13:00N 33°44' W 118°16'1 2.9
2017-Jun-17 12:30N 33°45' W 118°16'1 1.3
2017-Jun-17 12:00N 33°46' W 118°15'2 4.2
2017-Jun-17 11:28N 33°44' W 118°16'1 1.2
2017-Jun-17 11:00N 33°44' W 118°16'0 0.0
2017-Jun-17 10:30N 33°44' W 118°16'0 0.0
2017-Jun-17 10:00N 33°44' W 118°16'0 0.0
2017-Jun-17 09:30N 33°44' W 118°16'0 0.0
2017-Jun-17 09:00N 33°44' W 118°16'0 0.0
2017-Jun-17 08:30N 33°44' W 118°16'0 0.0
2017-Jun-17 08:00N 33°44' W 118°16'0 0.0
2017-Jun-17 07:30N 33°44' W 118°16'0 0.0
2017-Jun-17 07:00N 33°44' W 118°16'0 0.0
2017-Jun-17 06:30N 33°44' W 118°16'0 0.0
2017-Jun-17 06:00N 33°44' W 118°16'0 0.0
2017-Jun-17 05:30N 33°44' W 118°16'0 0.0
2017-Jun-17 04:57N 33°44' W 118°16'1 0.5
2017-Jun-17 02:59N 33°43' W 118°16'1 2.3
2017-Jun-17 02:29N 33°44' W 118°15'0 0.2
2017-Jun-17 01:44N 33°44' W 118°15'0 0.9
2017-Jun-17 01:14N 33°44' W 118°16'0 0.0
2017-Jun-17 01:00N 33°44' W 118°16'0 0.0
2017-Jun-17 00:17N 33°44' W 118°16'0 0.0
2017-Jun-17 00:00N 33°44' W 118°16'0 0.0
2017-Jun-16 23:26N 33°44' W 118°16'0 0.0
2017-Jun-16 23:00N 33°44' W 118°16'0 0.0
2017-Jun-16 22:30N 33°44' W 118°16'0 0.0
2017-Jun-16 22:00N 33°44' W 118°16'0 0.0
2017-Jun-16 21:30N 33°44' W 118°16'0 0.0
2017-Jun-16 21:00N 33°44' W 118°16'0 0.0
2017-Jun-16 20:30N 33°44' W 118°16'0 0.0
2017-Jun-16 19:59N 33°44' W 118°16'0 0.0
2017-Jun-16 19:29N 33°44' W 118°16'0 0.0
2017-Jun-16 19:00N 33°44' W 118°16'2 3.3
2017-Jun-16 18:30N 33°44' W 118°14'2 3.7
2017-Jun-16 18:00N 33°45' W 118°13'0 0.0
2017-Jun-16 17:30N 33°45' W 118°13'0 0.0
2017-Jun-16 16:55N 33°45' W 118°13'0 0.0
2017-Jun-16 16:30N 33°45' W 118°13'0 0.5
2017-Jun-16 15:59N 33°45' W 118°13'2 4.0
2017-Jun-16 15:30N 33°44' W 118°11'3 6.4
2017-Jun-16 14:59N 33°43' W 118°15'0 0.3
2017-Jun-16 14:00N 33°43' W 118°16'1 1.2
2017-Jun-16 13:29N 33°43' W 118°15'0 0.1
2017-Jun-16 13:00N 33°43' W 118°15'1 2.6
2017-Jun-16 12:30N 33°44' W 118°16'0 0.0
2017-Jun-16 12:00N 33°44' W 118°16'0 0.0
2017-Jun-16 11:30N 33°44' W 118°16'0 0.0
2017-Jun-16 11:00N 33°44' W 118°16'0 0.0
2017-Jun-16 10:30N 33°44' W 118°16'0 0.0
2017-Jun-16 09:58N 33°44' W 118°16'0 0.0
2017-Jun-16 09:30N 33°44' W 118°16'0 0.0
2017-Jun-16 09:00N 33°44' W 118°16'0 0.0
2017-Jun-16 08:30N 33°44' W 118°16'0 0.0
2017-Jun-16 08:00N 33°44' W 118°16'0 0.0
2017-Jun-16 07:30N 33°44' W 118°16'0 0.0
2017-Jun-16 07:00N 33°44' W 118°16'0 0.0
2017-Jun-16 06:29N 33°44' W 118°16'0 0.0
2017-Jun-16 06:00N 33°44' W 118°16'0 0.0
2017-Jun-16 05:25N 33°44' W 118°16'0 0.0
2017-Jun-16 04:53N 33°44' W 118°16'0 0.0
2017-Jun-16 04:20N 33°44' W 118°16'0 0.0
2017-Jun-16 04:00N 33°44' W 118°16'0 0.0
2017-Jun-16 02:44N 33°44' W 118°16'0 0.0
2017-Jun-16 02:01N 33°44' W 118°16'0 0.0
2017-Jun-16 01:55N 33°44' W 118°16'0 0.0
2017-Jun-16 00:51N 33°44' W 118°16'0 0.0
2017-Jun-16 00:30N 33°44' W 118°16'0 0.0
2017-Jun-16 00:00N 33°44' W 118°16'0 0.0
2017-Jun-15 23:30N 33°44' W 118°16'0 0.0
2017-Jun-15 22:51N 33°44' W 118°16'0 0.0
2017-Jun-15 22:30N 33°44' W 118°16'0 0.0
2017-Jun-15 22:00N 33°44' W 118°16'0 0.0
2017-Jun-15 21:28N 33°44' W 118°16'0 0.0
2017-Jun-15 21:00N 33°44' W 118°16'0 0.0
2017-Jun-15 20:30N 33°44' W 118°16'0 0.0
2017-Jun-15 19:58N 33°44' W 118°16'0 0.0
2017-Jun-15 19:29N 33°44' W 118°16'0 0.0
2017-Jun-15 19:00N 33°44' W 118°16'0 0.0
2017-Jun-15 18:30N 33°44' W 118°16'0 0.0
2017-Jun-15 17:55N 33°44' W 118°16'0 0.0
2017-Jun-15 17:30N 33°44' W 118°16'0 0.0
2017-Jun-15 17:00N 33°44' W 118°16'0 0.0
2017-Jun-15 16:26N 33°44' W 118°16'0 0.0
2017-Jun-15 16:00N 33°44' W 118°16'0 0.0
2017-Jun-15 15:29N 33°44' W 118°16'0 0.0
2017-Jun-15 15:00N 33°44' W 118°16'0 0.0
2017-Jun-15 14:00N 33°44' W 118°16'0 0.0
2017-Jun-15 13:30N 33°44' W 118°16'0 0.0
2017-Jun-15 13:00N 33°44' W 118°16'0 0.0
2017-Jun-15 12:30N 33°44' W 118°16'0 0.0
2017-Jun-15 12:00N 33°44' W 118°16'0 0.0
2017-Jun-15 11:30N 33°44' W 118°16'0 0.0
2017-Jun-15 11:00N 33°44' W 118°16'0 0.0
2017-Jun-15 10:30N 33°44' W 118°16'0 0.0
2017-Jun-15 10:00N 33°44' W 118°16'0 0.0
2017-Jun-15 09:30N 33°44' W 118°16'0 0.0
2017-Jun-15 09:00N 33°44' W 118°16'0 0.0
2017-Jun-15 08:30N 33°44' W 118°16'0 0.0
2017-Jun-15 08:00N 33°44' W 118°16'0 0.0
2017-Jun-15 07:30N 33°44' W 118°16'0 0.0
2017-Jun-15 07:00N 33°44' W 118°16'0 0.0
2017-Jun-15 06:30N 33°44' W 118°16'0 0.0
2017-Jun-15 06:00N 33°44' W 118°16'0 0.0
2017-Jun-15 05:30N 33°44' W 118°16'0 0.0
2017-Jun-15 04:32N 33°44' W 118°16'0 0.0
2017-Jun-15 04:18N 33°44' W 118°16'0 0.0
2017-Jun-15 04:00N 33°44' W 118°16'0 0.0
2017-Jun-15 03:30N 33°44' W 118°16'0 0.0
2017-Jun-15 03:00N 33°44' W 118°16'0 0.0
2017-Jun-15 02:30N 33°44' W 118°16'0 0.5
2017-Jun-15 02:00N 33°44' W 118°16'1 1.1
2017-Jun-15 01:30N 33°44' W 118°15'0 0.9
2017-Jun-15 01:00N 33°44' W 118°16'0 0.0
2017-Jun-15 00:30N 33°44' W 118°16'0 0.0
2017-Jun-14 23:38N 33°44' W 118°16'0 0.1
2017-Jun-14 23:30N 33°44' W 118°16'1 2.4
2017-Jun-14 23:00N 33°45' W 118°16'0 0.6
2017-Jun-14 22:25N 33°45' W 118°17'2 5.5
2017-Jun-14 22:00N 33°43' W 118°15'1 2.5
2017-Jun-14 21:30N 33°44' W 118°16'1 1.1
2017-Jun-14 21:00N 33°44' W 118°16'3 4.9
2017-Jun-14 20:30N 33°46' W 118°15'3 5.8
2017-Jun-14 20:00N 33°43' W 118°16'1 1.4
2017-Jun-14 19:30N 33°44' W 118°16'0 0.0
2017-Jun-14 19:00N 33°44' W 118°16'0 0.0
2017-Jun-14 18:30N 33°44' W 118°16'0 0.0
2017-Jun-14 18:00N 33°44' W 118°16'0 0.0
2017-Jun-14 17:30N 33°44' W 118°16'0 0.0
2017-Jun-14 17:00N 33°44' W 118°16'0 0.0
2017-Jun-14 16:30N 33°44' W 118°16'0 0.0
2017-Jun-14 16:00N 33°44' W 118°16'0 0.0
2017-Jun-14 15:30N 33°44' W 118°16'0 0.0
2017-Jun-14 14:58N 33°44' W 118°16'0 0.0
2017-Jun-14 14:00N 33°44' W 118°16'0 0.0
2017-Jun-14 13:30N 33°44' W 118°16'0 0.0
2017-Jun-14 12:59N 33°44' W 118°16'0 0.0
2017-Jun-14 12:30N 33°44' W 118°16'1 1.2
2017-Jun-14 12:00N 33°44' W 118°15'1 1.5
2017-Jun-14 11:30N 33°44' W 118°16'1 2.4
2017-Jun-14 11:00N 33°43' W 118°15'1 2.8
2017-Jun-14 10:30N 33°44' W 118°16'0 0.0
2017-Jun-14 10:00N 33°44' W 118°16'0 0.0
2017-Jun-14 09:30N 33°44' W 118°16'0 0.0
2017-Jun-14 09:00N 33°44' W 118°16'0 0.0
2017-Jun-14 08:30N 33°44' W 118°16'0 0.0
2017-Jun-14 08:00N 33°44' W 118°16'0 0.0
2017-Jun-14 07:30N 33°44' W 118°16'0 0.0
2017-Jun-14 07:00N 33°44' W 118°16'0 0.0
2017-Jun-14 06:30N 33°44' W 118°16'0 0.0
2017-Jun-14 06:00N 33°44' W 118°16'0 0.0
2017-Jun-14 05:30N 33°44' W 118°16'0 0.0
2017-Jun-14 05:00N 33°44' W 118°16'  
Track history (hours):
 
Tides and Currents Weather Stations Pressure Air Temp Water Temp Dewpoint Dewpoint Depression Visibility Wind Speed Wind Dir Waves Ship Positions

John Quigg

Owner: Harley Marine Services, Inc, Seattle, WA. More information available from US FCC via Universal Licensing System and Coast Guard Vessel Documentation Center.

Last reported at 2017-Jun-24 05:00 UTC. Time now 2017-Jun-24 05:23 UTC.
Position N 33°44' W 118°16'.

Length 27 m.

MMSI: 365934954.

Date/timePositionNaut miles runAvg speedWind from/ knotsBaromVisibWave heightAir tempDewpointWater temp
2017-Jun-24 05:00N 33°44' W 118°16'0 0.0
2017-Jun-24 04:30N 33°44' W 118°16'0 0.0
2017-Jun-24 04:00N 33°44' W 118°16'0 0.0
2017-Jun-24 03:11N 33°44' W 118°16'0 0.0
2017-Jun-24 02:49N 33°44' W 118°16'0 0.0
2017-Jun-24 02:13N 33°44' W 118°16'0 0.0
2017-Jun-24 02:00N 33°44' W 118°16'0 0.0
2017-Jun-24 00:51N 33°44' W 118°16'0 0.0
2017-Jun-23 23:30N 33°44' W 118°16'0 0.0
2017-Jun-23 22:53N 33°44' W 118°16'0 0.0
2017-Jun-23 22:28N 33°44' W 118°16'0 0.0
2017-Jun-23 22:00N 33°44' W 118°16'0 0.0
2017-Jun-23 21:20N 33°44' W 118°16'0 0.0
2017-Jun-23 20:53N 33°44' W 118°16'0 0.0
2017-Jun-23 19:28N 33°44' W 118°16'0 0.0
2017-Jun-23 19:00N 33°44' W 118°16'2 2.5
2017-Jun-23 18:07N 33°45' W 118°13'1 1.2
2017-Jun-23 17:35N 33°45' W 118°13'2 6.4
2017-Jun-23 17:15N 33°43' W 118°14'1 4.9
2017-Jun-23 17:00N 33°43' W 118°16'0 0.7
2017-Jun-23 16:28N 33°44' W 118°16'2 1.9
2017-Jun-23 15:26N 33°44' W 118°13'1 0.4
2017-Jun-23 13:39N 33°44' W 118°12'1 1.1
2017-Jun-23 13:04N 33°44' W 118°12'0 5.5
2017-Jun-23 13:00N 33°44' W 118°12'3 5.7
2017-Jun-23 12:30N 33°43' W 118°16'0 0.1
2017-Jun-23 10:31N 33°43' W 118°16'0 4.9
2017-Jun-23 10:30N 33°43' W 118°16'1 1.0
2017-Jun-23 09:50N 33°44' W 118°16'0 0.0
2017-Jun-23 09:23N 33°44' W 118°16'0 0.0
2017-Jun-23 08:54N 33°44' W 118°16'0 0.0
2017-Jun-23 08:29N 33°44' W 118°16'0 0.0
2017-Jun-23 07:57N 33°44' W 118°16'0 0.0
2017-Jun-23 07:17N 33°44' W 118°16'0 0.0
2017-Jun-23 06:46N 33°44' W 118°16'0 0.0
2017-Jun-23 06:26N 33°44' W 118°16'0 0.0
2017-Jun-23 05:14N 33°44' W 118°16'0 0.0
2017-Jun-23 04:59N 33°44' W 118°16'0 0.0
2017-Jun-23 04:21N 33°44' W 118°16'0 0.0
2017-Jun-23 03:18N 33°44' W 118°16'0 0.0
2017-Jun-23 03:00N 33°44' W 118°16'0 0.0
2017-Jun-23 02:27N 33°44' W 118°16'1 2.2
2017-Jun-23 01:54N 33°45' W 118°16'0 1.2
2017-Jun-23 01:30N 33°45' W 118°17'2 3.9
2017-Jun-23 00:59N 33°43' W 118°16'1 1.4
2017-Jun-23 00:30N 33°44' W 118°16'0 0.0
2017-Jun-23 00:00N 33°44' W 118°16'0 0.0
2017-Jun-22 23:30N 33°44' W 118°16'0 0.0
2017-Jun-22 22:59N 33°44' W 118°16'0 0.0
2017-Jun-22 22:18N 33°44' W 118°16'0 0.0
2017-Jun-22 22:00N 33°44' W 118°16'0 0.0
2017-Jun-22 21:30N 33°44' W 118°16'0 0.0
2017-Jun-22 21:00N 33°44' W 118°16'0 0.0
2017-Jun-22 20:23N 33°44' W 118°16'0 0.0
2017-Jun-22 20:00N 33°44' W 118°16'0 0.0
2017-Jun-22 19:27N 33°44' W 118°16'0 0.0
2017-Jun-22 18:57N 33°44' W 118°16'0 0.0
2017-Jun-22 18:26N 33°44' W 118°16'0 0.0
2017-Jun-22 17:55N 33°44' W 118°16'0 0.0
2017-Jun-22 17:30N 33°44' W 118°16'0 0.0
2017-Jun-22 17:00N 33°44' W 118°16'0 0.0
2017-Jun-22 16:30N 33°44' W 118°16'0 0.0
2017-Jun-22 16:00N 33°44' W 118°16'0 0.0
2017-Jun-22 15:30N 33°44' W 118°16'1 1.9
2017-Jun-22 14:46N 33°45' W 118°16'2 2.5
2017-Jun-22 14:01N 33°43' W 118°16'1 2.1
2017-Jun-22 13:29N 33°44' W 118°15'1 1.4
2017-Jun-22 12:39N 33°43' W 118°15'1 1.9
2017-Jun-22 12:21N 33°43' W 118°16'1 1.6
2017-Jun-22 12:00N 33°44' W 118°15'0 0.1
2017-Jun-22 11:29N 33°44' W 118°15'0 0.0
2017-Jun-22 11:00N 33°44' W 118°15'0 0.7
2017-Jun-22 10:30N 33°44' W 118°16'0 0.0
2017-Jun-22 10:00N 33°44' W 118°16'0 0.0
2017-Jun-22 09:30N 33°44' W 118°16'0 0.0
2017-Jun-22 09:00N 33°44' W 118°16'0 0.0
2017-Jun-22 08:30N 33°44' W 118°16'0 0.0
2017-Jun-22 08:00N 33°44' W 118°16'0 0.0
2017-Jun-22 07:30N 33°44' W 118°16'0 0.0
2017-Jun-22 07:00N 33°44' W 118°16'0 0.0
2017-Jun-22 06:30N 33°44' W 118°16'0 0.0
2017-Jun-22 06:00N 33°44' W 118°16'0 0.0
2017-Jun-22 05:30N 33°44' W 118°16'0 0.0
2017-Jun-22 05:00N 33°44' W 118°16'0 0.0
2017-Jun-22 04:28N 33°44' W 118°16'0 0.0
2017-Jun-22 03:35N 33°44' W 118°16'0 0.0
2017-Jun-22 03:26N 33°44' W 118°16'0 0.0
2017-Jun-22 03:00N 33°44' W 118°16'0 0.0
2017-Jun-22 02:26N 33°44' W 118°16'0 0.0
2017-Jun-22 02:00N 33°44' W 118°16'0 0.0
2017-Jun-22 01:30N 33°44' W 118°16'0 0.0
2017-Jun-22 01:00N 33°44' W 118°16'1 2.4
2017-Jun-22 00:30N 33°43' W 118°15'3 6.2
2017-Jun-22 00:00N 33°44' W 118°12'2 3.2
2017-Jun-21 23:30N 33°44' W 118°13'2 3.9
2017-Jun-21 23:00N 33°44' W 118°16'0 0.0
2017-Jun-21 22:30N 33°44' W 118°16'0 0.0
2017-Jun-21 22:00N 33°44' W 118°16'0 0.0
2017-Jun-21 21:30N 33°44' W 118°16'0 0.0
2017-Jun-21 20:59N 33°44' W 118°16'1 1.5
2017-Jun-21 20:30N 33°43' W 118°16'3 5.6
2017-Jun-21 19:58N 33°46' W 118°15'0 0.0
2017-Jun-21 19:28N 33°46' W 118°15'0 0.0
2017-Jun-21 18:57N 33°46' W 118°15'2 3.0
2017-Jun-21 18:26N 33°46' W 118°13'0 0.6
2017-Jun-21 17:58N 33°46' W 118°13'2 0.8
2017-Jun-21 15:10N 33°44' W 118°13'1 0.4
2017-Jun-21 12:47N 33°45' W 118°13'1 5.5
2017-Jun-21 12:30N 33°44' W 118°12'3 1.9
2017-Jun-21 11:07N 33°46' W 118°13'0 0.0
2017-Jun-21 10:44N 33°46' W 118°13'1 4.7
2017-Jun-21 10:30N 33°45' W 118°13'3 5.1
2017-Jun-21 10:00N 33°44' W 118°16'0 0.1
2017-Jun-21 09:25N 33°44' W 118°16'0 0.0
2017-Jun-21 09:00N 33°44' W 118°16'0 0.0
2017-Jun-21 08:30N 33°44' W 118°16'0 0.0
2017-Jun-21 08:00N 33°44' W 118°16'0 0.0
2017-Jun-21 07:30N 33°44' W 118°16'0 0.0
2017-Jun-21 07:00N 33°44' W 118°16'0 0.0
2017-Jun-21 06:30N 33°44' W 118°16'0 0.0
2017-Jun-21 05:59N 33°44' W 118°16'0 0.0
2017-Jun-21 05:30N 33°44' W 118°16'0 0.0
2017-Jun-21 05:00N 33°44' W 118°16'0 0.0
2017-Jun-21 04:30N 33°44' W 118°16'0 0.0
2017-Jun-21 04:00N 33°44' W 118°16'0 0.0
2017-Jun-21 03:30N 33°44' W 118°16'0 0.0
2017-Jun-21 02:59N 33°44' W 118°16'0 0.0
2017-Jun-21 02:30N 33°44' W 118°16'0 0.0
2017-Jun-21 01:48N 33°44' W 118°16'0 0.0
2017-Jun-21 01:30N 33°44' W 118°16'0 0.0
2017-Jun-21 00:54N 33°44' W 118°16'0 0.0
2017-Jun-21 00:28N 33°44' W 118°16'0 0.0
2017-Jun-20 23:15N 33°44' W 118°16'0 0.0
2017-Jun-20 22:51N 33°44' W 118°16'0 0.0
2017-Jun-20 22:18N 33°44' W 118°16'0 0.0
2017-Jun-20 22:00N 33°44' W 118°16'0 0.0
2017-Jun-20 21:30N 33°44' W 118°16'0 0.0
2017-Jun-20 21:00N 33°44' W 118°16'0 0.0
2017-Jun-20 20:30N 33°44' W 118°16'0 0.0
2017-Jun-20 19:57N 33°44' W 118°16'0 0.0
2017-Jun-20 19:30N 33°44' W 118°16'0 0.0
2017-Jun-20 19:00N 33°44' W 118°16'0 0.0
2017-Jun-20 18:30N 33°44' W 118°16'0 0.0
2017-Jun-20 18:00N 33°44' W 118°16'0 0.0
2017-Jun-20 17:30N 33°44' W 118°16'0 0.0
2017-Jun-20 16:34N 33°44' W 118°16'0 0.0
2017-Jun-20 16:27N 33°44' W 118°16'0 0.0
2017-Jun-20 14:35N 33°44' W 118°16'0 0.0
2017-Jun-20 14:25N 33°44' W 118°16'0 0.0
2017-Jun-20 13:30N 33°44' W 118°16'0 0.0
2017-Jun-20 10:13N 33°44' W 118°16'0 0.0
2017-Jun-20 09:23N 33°44' W 118°16'0 0.0
2017-Jun-20 08:39N 33°44' W 118°16'0 0.0
2017-Jun-20 08:27N 33°44' W 118°16'0 0.0
2017-Jun-20 07:53N 33°44' W 118°16'0 0.0
2017-Jun-20 07:23N 33°44' W 118°16'0 0.0
2017-Jun-20 06:52N 33°44' W 118°16'0 0.0
2017-Jun-20 06:24N 33°44' W 118°16'0 0.0
2017-Jun-20 05:37N 33°44' W 118°16'0 0.0
2017-Jun-20 05:11N 33°44' W 118°16'0 0.0
2017-Jun-20 04:37N 33°44' W 118°16'0 0.0
2017-Jun-20 04:29N 33°44' W 118°16'0 0.0
2017-Jun-20 04:00N 33°44' W 118°16'0 0.0
2017-Jun-20 03:30N 33°44' W 118°16'0 0.0
2017-Jun-20 02:59N 33°44' W 118°16'0 0.0
2017-Jun-20 02:31N 33°44' W 118°16'0 0.0
2017-Jun-20 02:00N 33°44' W 118°16'0 0.0
2017-Jun-20 01:30N 33°44' W 118°16'0 0.0
2017-Jun-20 01:00N 33°44' W 118°16'1 2.1
2017-Jun-20 00:30N 33°43' W 118°15'3 6.2
2017-Jun-20 00:00N 33°40' W 118°14'510.1
2017-Jun-19 23:31N 33°44' W 118°17'2 2.7
2017-Jun-19 22:57N 33°46' W 118°16'2 3.8
2017-Jun-19 22:30N 33°44' W 118°17'2 3.8
2017-Jun-19 22:00N 33°43' W 118°15'1 2.4
2017-Jun-19 21:26N 33°44' W 118°16'0 0.0
2017-Jun-19 20:52N 33°44' W 118°16'0 0.0
2017-Jun-19 20:27N 33°44' W 118°16'0 0.0
2017-Jun-19 19:54N 33°44' W 118°16'0 0.0
2017-Jun-19 19:30N 33°44' W 118°16'0 0.0
2017-Jun-19 18:54N 33°44' W 118°16'0 0.0
2017-Jun-19 17:49N 33°44' W 118°16'0 0.0
2017-Jun-19 17:24N 33°44' W 118°16'0 0.0
2017-Jun-19 17:00N 33°44' W 118°16'0 0.0
2017-Jun-19 16:27N 33°44' W 118°16'0 0.0
2017-Jun-19 15:57N 33°44' W 118°16'0 0.0
2017-Jun-19 15:27N 33°44' W 118°16'0 0.0
2017-Jun-19 14:44N 33°44' W 118°16'2 2.7
2017-Jun-19 13:54N 33°46' W 118°15'0 0.7
2017-Jun-19 13:30N 33°46' W 118°15'2 3.5
2017-Jun-19 12:58N 33°44' W 118°17'2 4.1
2017-Jun-19 12:30N 33°43' W 118°15'1 1.1
2017-Jun-19 12:00N 33°43' W 118°16'1 1.3
2017-Jun-19 11:30N 33°44' W 118°16'0 0.1
2017-Jun-19 11:00N 33°44' W 118°16'0 0.0
2017-Jun-19 10:26N 33°44' W 118°16'0 0.0
2017-Jun-19 09:57N 33°44' W 118°16'0 0.0
2017-Jun-19 09:30N 33°44' W 118°16'0 0.0
2017-Jun-19 08:57N 33°44' W 118°16'0 0.0
2017-Jun-19 08:29N 33°44' W 118°16'0 0.0
2017-Jun-19 08:00N 33°44' W 118°16'0 0.0
2017-Jun-19 07:30N 33°44' W 118°16'0 0.0
2017-Jun-19 06:58N 33°44' W 118°16'0 0.0
2017-Jun-19 06:26N 33°44' W 118°16'0 0.0
2017-Jun-19 05:49N 33°44' W 118°16'0 0.0
2017-Jun-19 05:30N 33°44' W 118°16'0 0.0
2017-Jun-19 05:00N 33°44' W 118°16'0 0.0
2017-Jun-19 04:30N 33°44' W 118°16'0 0.0
2017-Jun-19 03:57N 33°44' W 118°16'0 0.0
2017-Jun-19 03:30N 33°44' W 118°16'0 0.0
2017-Jun-19 02:57N 33°44' W 118°16'0 0.0
2017-Jun-19 02:27N 33°44' W 118°16'0 0.0
2017-Jun-19 01:53N 33°44' W 118°16'0 0.0
2017-Jun-19 01:22N 33°44' W 118°16'0 0.0
2017-Jun-19 00:57N 33°44' W 118°16'0 0.0
2017-Jun-19 00:30N 33°44' W 118°16'0 0.0
2017-Jun-19 00:00N 33°44' W 118°16'0 0.0
2017-Jun-18 23:30N 33°44' W 118°16'0 0.0
2017-Jun-18 23:00N 33°44' W 118°16'1 2.9
2017-Jun-18 22:30N 33°45' W 118°16'1 1.7
2017-Jun-18 22:00N 33°44' W 118°17'1 2.7
2017-Jun-18 21:30N 33°43' W 118°16'1 1.2
2017-Jun-18 21:00N 33°43' W 118°15'1 2.0
2017-Jun-18 20:29N 33°44' W 118°16'0 0.0
2017-Jun-18 19:58N 33°44' W 118°16'0 0.0
2017-Jun-18 19:30N 33°44' W 118°16'0 0.0
2017-Jun-18 19:00N 33°44' W 118°16'0 0.0
2017-Jun-18 18:30N 33°44' W 118°16'0 0.0
2017-Jun-18 16:13N 33°44' W 118°16'0 0.0
2017-Jun-18 16:00N 33°44' W 118°16'0 0.0
2017-Jun-18 15:29N 33°44' W 118°16'0 0.0
2017-Jun-18 14:32N 33°44' W 118°16'0 0.0
2017-Jun-18 13:58N 33°44' W 118°16'0 0.0
2017-Jun-18 13:21N 33°44' W 118°16'0 0.7
2017-Jun-18 13:00N 33°44' W 118°16'0 0.8
2017-Jun-18 12:30N 33°44' W 118°15'0 0.1
2017-Jun-18 12:00N 33°44' W 118°15'0 0.4
2017-Jun-18 11:30N 33°44' W 118°16'0 0.6
2017-Jun-18 11:00N 33°44' W 118°15'0 0.6
2017-Jun-18 10:29N 33°44' W 118°16'1 2.4
2017-Jun-18 10:01N 33°43' W 118°15'1 2.3
2017-Jun-18 09:28N 33°44' W 118°16'0 0.0
2017-Jun-18 09:00N 33°44' W 118°16'0 0.0
2017-Jun-18 08:29N 33°44' W 118°16'0 0.0
2017-Jun-18 07:54N 33°44' W 118°16'0 0.0
2017-Jun-18 07:30N 33°44' W 118°16'0 0.0
2017-Jun-18 07:00N 33°44' W 118°16'0 0.0
2017-Jun-18 06:30N 33°44' W 118°16'0 0.0
2017-Jun-18 06:00N 33°44' W 118°16'0 0.0
2017-Jun-18 05:30N 33°44' W 118°16'0 0.0
2017-Jun-18 04:56N 33°44' W 118°16'1 1.6
2017-Jun-18 04:26N 33°43' W 118°16'3 7.7
2017-Jun-18 04:00N 33°46' W 118°13'1 2.2
2017-Jun-18 03:30N 33°45' W 118°13'2 4.5
2017-Jun-18 03:00N 33°44' W 118°16'0 0.0
2017-Jun-18 02:30N 33°44' W 118°16'0 0.0
2017-Jun-18 02:00N 33°44' W 118°16'0 0.0
2017-Jun-18 01:30N 33°44' W 118°16'0 0.0
2017-Jun-18 00:58N 33°44' W 118°16'0 0.0
2017-Jun-18 00:30N 33°44' W 118°16'0 0.0
2017-Jun-18 00:00N 33°44' W 118°16'0 0.0
2017-Jun-17 23:30N 33°44' W 118°16'0 0.0
2017-Jun-17 23:00N 33°44' W 118°16'0 0.0
2017-Jun-17 22:30N 33°44' W 118°16'0 0.0
2017-Jun-17 22:00N 33°44' W 118°16'0 0.0
2017-Jun-17 21:30N 33°44' W 118°16'0 0.0
2017-Jun-17 21:00N 33°44' W 118°16'0 0.0
2017-Jun-17 20:30N 33°44' W 118°16'0 0.0
2017-Jun-17 20:00N 33°44' W 118°16'0 0.0
2017-Jun-17 19:30N 33°44' W 118°16'0 0.0
2017-Jun-17 19:00N 33°44' W 118°16'0 0.0
2017-Jun-17 18:30N 33°44' W 118°16'0 0.0
2017-Jun-17 18:00N 33°44' W 118°16'0 0.0
2017-Jun-17 17:29N 33°44' W 118°16'0 0.0
2017-Jun-17 16:59N 33°44' W 118°16'0 0.0
2017-Jun-17 16:30N 33°44' W 118°16'0 0.0
2017-Jun-17 16:00N 33°44' W 118°16'0 0.0
2017-Jun-17 15:29N 33°44' W 118°16'0 0.0
2017-Jun-17 15:00N 33°44' W 118°16'0 0.0
2017-Jun-17 14:00N 33°44' W 118°16'0 0.0
2017-Jun-17 13:30N 33°44' W 118°16'0 0.2
2017-Jun-17 13:00N 33°44' W 118°16'1 2.9
2017-Jun-17 12:30N 33°45' W 118°16'1 1.3
2017-Jun-17 12:00N 33°46' W 118°15'2 4.2
2017-Jun-17 11:28N 33°44' W 118°16'1 1.2
2017-Jun-17 11:00N 33°44' W 118°16'0 0.0
2017-Jun-17 10:30N 33°44' W 118°16'0 0.0
2017-Jun-17 10:00N 33°44' W 118°16'0 0.0
2017-Jun-17 09:30N 33°44' W 118°16'0 0.0
2017-Jun-17 09:00N 33°44' W 118°16'0 0.0
2017-Jun-17 08:30N 33°44' W 118°16'0 0.0
2017-Jun-17 08:00N 33°44' W 118°16'0 0.0
2017-Jun-17 07:30N 33°44' W 118°16'0 0.0
2017-Jun-17 07:00N 33°44' W 118°16'0 0.0
2017-Jun-17 06:30N 33°44' W 118°16'0 0.0
2017-Jun-17 06:00N 33°44' W 118°16'0 0.0
2017-Jun-17 05:30N 33°44' W 118°16'0 0.0
2017-Jun-17 04:57N 33°44' W 118°16'1 0.5
2017-Jun-17 02:59N 33°43' W 118°16'1 2.3
2017-Jun-17 02:29N 33°44' W 118°15'0 0.2
2017-Jun-17 01:44N 33°44' W 118°15'0 0.9
2017-Jun-17 01:14N 33°44' W 118°16'0 0.0
2017-Jun-17 01:00N 33°44' W 118°16'0 0.0
2017-Jun-17 00:17N 33°44' W 118°16'0 0.0
2017-Jun-17 00:00N 33°44' W 118°16'0 0.0
2017-Jun-16 23:26N 33°44' W 118°16'0 0.0
2017-Jun-16 23:00N 33°44' W 118°16'0 0.0
2017-Jun-16 22:30N 33°44' W 118°16'0 0.0
2017-Jun-16 22:00N 33°44' W 118°16'0 0.0
2017-Jun-16 21:30N 33°44' W 118°16'0 0.0
2017-Jun-16 21:00N 33°44' W 118°16'0 0.0
2017-Jun-16 20:30N 33°44' W 118°16'0 0.0
2017-Jun-16 19:59N 33°44' W 118°16'0 0.0
2017-Jun-16 19:29N 33°44' W 118°16'0 0.0
2017-Jun-16 19:00N 33°44' W 118°16'2 3.3
2017-Jun-16 18:30N 33°44' W 118°14'2 3.7
2017-Jun-16 18:00N 33°45' W 118°13'0 0.0
2017-Jun-16 17:30N 33°45' W 118°13'0 0.0
2017-Jun-16 16:55N 33°45' W 118°13'0 0.0
2017-Jun-16 16:30N 33°45' W 118°13'0 0.5
2017-Jun-16 15:59N 33°45' W 118°13'2 4.0
2017-Jun-16 15:30N 33°44' W 118°11'3 6.4
2017-Jun-16 14:59N 33°43' W 118°15'0 0.3
2017-Jun-16 14:00N 33°43' W 118°16'1 1.2
2017-Jun-16 13:29N 33°43' W 118°15'0 0.1
2017-Jun-16 13:00N 33°43' W 118°15'1 2.6
2017-Jun-16 12:30N 33°44' W 118°16'0 0.0
2017-Jun-16 12:00N 33°44' W 118°16'0 0.0
2017-Jun-16 11:30N 33°44' W 118°16'0 0.0
2017-Jun-16 11:00N 33°44' W 118°16'0 0.0
2017-Jun-16 10:30N 33°44' W 118°16'0 0.0
2017-Jun-16 09:58N 33°44' W 118°16'0 0.0
2017-Jun-16 09:30N 33°44' W 118°16'0 0.0
2017-Jun-16 09:00N 33°44' W 118°16'0 0.0
2017-Jun-16 08:30N 33°44' W 118°16'0 0.0
2017-Jun-16 08:00N 33°44' W 118°16'0 0.0
2017-Jun-16 07:30N 33°44' W 118°16'0 0.0
2017-Jun-16 07:00N 33°44' W 118°16'0 0.0
2017-Jun-16 06:29N 33°44' W 118°16'0 0.0
2017-Jun-16 06:00N 33°44' W 118°16'0 0.0
2017-Jun-16 05:25N 33°44' W 118°16'0 0.0
2017-Jun-16 04:53N 33°44' W 118°16'0 0.0
2017-Jun-16 04:20N 33°44' W 118°16'0 0.0
2017-Jun-16 04:00N 33°44' W 118°16'0 0.0
2017-Jun-16 02:44N 33°44' W 118°16'0 0.0
2017-Jun-16 02:01N 33°44' W 118°16'0 0.0
2017-Jun-16 01:55N 33°44' W 118°16'0 0.0
2017-Jun-16 00:51N 33°44' W 118°16'0 0.0
2017-Jun-16 00:30N 33°44' W 118°16'0 0.0
2017-Jun-16 00:00N 33°44' W 118°16'0 0.0
2017-Jun-15 23:30N 33°44' W 118°16'0 0.0
2017-Jun-15 22:51N 33°44' W 118°16'0 0.0
2017-Jun-15 22:30N 33°44' W 118°16'0 0.0
2017-Jun-15 22:00N 33°44' W 118°16'0 0.0
2017-Jun-15 21:28N 33°44' W 118°16'0 0.0
2017-Jun-15 21:00N 33°44' W 118°16'0 0.0
2017-Jun-15 20:30N 33°44' W 118°16'0 0.0
2017-Jun-15 19:58N 33°44' W 118°16'0 0.0
2017-Jun-15 19:29N 33°44' W 118°16'0 0.0
2017-Jun-15 19:00N 33°44' W 118°16'0 0.0
2017-Jun-15 18:30N 33°44' W 118°16'0 0.0
2017-Jun-15 17:55N 33°44' W 118°16'0 0.0
2017-Jun-15 17:30N 33°44' W 118°16'0 0.0
2017-Jun-15 17:00N 33°44' W 118°16'0 0.0
2017-Jun-15 16:26N 33°44' W 118°16'0 0.0
2017-Jun-15 16:00N 33°44' W 118°16'0 0.0
2017-Jun-15 15:29N 33°44' W 118°16'0 0.0
2017-Jun-15 15:00N 33°44' W 118°16'0 0.0
2017-Jun-15 14:00N 33°44' W 118°16'0 0.0
2017-Jun-15 13:30N 33°44' W 118°16'0 0.0
2017-Jun-15 13:00N 33°44' W 118°16'0 0.0
2017-Jun-15 12:30N 33°44' W 118°16'0 0.0
2017-Jun-15 12:00N 33°44' W 118°16'0 0.0
2017-Jun-15 11:30N 33°44' W 118°16'0 0.0
2017-Jun-15 11:00N 33°44' W 118°16'0 0.0
2017-Jun-15 10:30N 33°44' W 118°16'0 0.0
2017-Jun-15 10:00N 33°44' W 118°16'0 0.0
2017-Jun-15 09:30N 33°44' W 118°16'0 0.0
2017-Jun-15 09:00N 33°44' W 118°16'0 0.0
2017-Jun-15 08:30N 33°44' W 118°16'0 0.0
2017-Jun-15 08:00N 33°44' W 118°16'0 0.0
2017-Jun-15 07:30N 33°44' W 118°16'0 0.0
2017-Jun-15 07:00N 33°44' W 118°16'0 0.0
2017-Jun-15 06:30N 33°44' W 118°16'0 0.0
2017-Jun-15 06:00N 33°44' W 118°16'0 0.0
2017-Jun-15 05:30N 33°44' W 118°16'0 0.0
2017-Jun-15 04:32N 33°44' W 118°16'0 0.0
2017-Jun-15 04:18N 33°44' W 118°16'0 0.0
2017-Jun-15 04:00N 33°44' W 118°16'0 0.0
2017-Jun-15 03:30N 33°44' W 118°16'0 0.0
2017-Jun-15 03:00N 33°44' W 118°16'0 0.0
2017-Jun-15 02:30N 33°44' W 118°16'0 0.5
2017-Jun-15 02:00N 33°44' W 118°16'1 1.1
2017-Jun-15 01:30N 33°44' W 118°15'0 0.9
2017-Jun-15 01:00N 33°44' W 118°16'0 0.0
2017-Jun-15 00:30N 33°44' W 118°16'0 0.0
2017-Jun-14 23:38N 33°44' W 118°16'0 0.1
2017-Jun-14 23:30N 33°44' W 118°16'1 2.4
2017-Jun-14 23:00N 33°45' W 118°16'0 0.6
2017-Jun-14 22:25N 33°45' W 118°17'2 5.5
2017-Jun-14 22:00N 33°43' W 118°15'1 2.5
2017-Jun-14 21:30N 33°44' W 118°16'1 1.1
2017-Jun-14 21:00N 33°44' W 118°16'3 4.9
2017-Jun-14 20:30N 33°46' W 118°15'3 5.8
2017-Jun-14 20:00N 33°43' W 118°16'1 1.4
2017-Jun-14 19:30N 33°44' W 118°16'0 0.0
2017-Jun-14 19:00N 33°44' W 118°16'0 0.0
2017-Jun-14 18:30N 33°44' W 118°16'0 0.0
2017-Jun-14 18:00N 33°44' W 118°16'0 0.0
2017-Jun-14 17:30N 33°44' W 118°16'0 0.0
2017-Jun-14 17:00N 33°44' W 118°16'0 0.0
2017-Jun-14 16:30N 33°44' W 118°16'0 0.0
2017-Jun-14 16:00N 33°44' W 118°16'0 0.0
2017-Jun-14 15:30N 33°44' W 118°16'0 0.0
2017-Jun-14 14:58N 33°44' W 118°16'0 0.0
2017-Jun-14 14:00N 33°44' W 118°16'0 0.0
2017-Jun-14 13:30N 33°44' W 118°16'0 0.0
2017-Jun-14 12:59N 33°44' W 118°16'0 0.0
2017-Jun-14 12:30N 33°44' W 118°16'1 1.2
2017-Jun-14 12:00N 33°44' W 118°15'1 1.5
2017-Jun-14 11:30N 33°44' W 118°16'1 2.4
2017-Jun-14 11:00N 33°43' W 118°15'1 2.8
2017-Jun-14 10:30N 33°44' W 118°16'0 0.0
2017-Jun-14 10:00N 33°44' W 118°16'0 0.0
2017-Jun-14 09:30N 33°44' W 118°16'0 0.0
2017-Jun-14 09:00N 33°44' W 118°16'0 0.0
2017-Jun-14 08:30N 33°44' W 118°16'0 0.0
2017-Jun-14 08:00N 33°44' W 118°16'0 0.0
2017-Jun-14 07:30N 33°44' W 118°16'0 0.0
2017-Jun-14 07:00N 33°44' W 118°16'0 0.0
2017-Jun-14 06:30N 33°44' W 118°16'0 0.0
2017-Jun-14 06:00N 33°44' W 118°16'0 0.0
2017-Jun-14 05:30N 33°44' W 118°16'0 0.0
2017-Jun-14 05:00N 33°44' W 118°16'  

Dump ship's entire track history